Time;durP1;ratioP1;P1;durP2;ratioP2;P2;SDS_P1;SDS_P2;PMS_P1;PMS_P2;Temp;Humidity;BMP_temperature;BMP_pressure;BME280_temperature;BME280_humidity;BME280_pressure;Samples;Min_cycle;Max_cycle;Signal;HPM_P1;HPM_P2
2022/10/16 00:01:27;;;;;;;3.50;0.68;;;15.00;99.90;;;;;;4841505;29;20197;-83
2022/10/16 00:03:54;;;;;;;3.25;0.60;;;15.00;99.90;;;;;;4843517;29;20189;-83
2022/10/16 00:06:21;;;;;;;1.20;0.60;;;14.90;99.90;;;;;;4843186;29;20192;-82
2022/10/16 00:08:48;;;;;;;3.53;0.60;;;14.90;99.90;;;;;;4843527;29;20177;-83
2022/10/16 00:11:36;;;;;;;1.08;0.60;;;14.90;99.90;;;;;;4843486;29;20225;-82
2022/10/16 00:14:05;;;;;;;3.00;0.80;;;14.80;99.90;;;;;;4839821;29;20197;-82
2022/10/16 00:16:31;;;;;;;1.50;0.60;;;14.60;99.90;;;;;;4843378;29;20181;-82
2022/10/16 00:18:57;;;;;;;2.00;0.60;;;14.50;99.90;;;;;;4843415;29;20184;-82
2022/10/16 00:21:26;;;;;;;1.00;0.73;;;14.50;99.90;;;;;;4842729;29;20280;-82
2022/10/16 00:23:59;;;;;;;2.72;0.70;;;14.50;99.90;;;;;;4826603;29;20185;-83
2022/10/16 00:26:26;;;;;;;1.08;0.70;;;14.50;99.90;;;;;;4826898;29;20613;-83
2022/10/16 00:28:52;;;;;;;1.20;0.73;;;14.40;99.90;;;;;;4842703;29;20222;-82
2022/10/16 00:31:20;;;;;;;1.17;0.80;;;14.40;99.90;;;;;;4843137;29;20300;-82
2022/10/16 00:33:47;;;;;;;1.52;0.85;;;14.40;99.90;;;;;;4827180;29;20185;-82
2022/10/16 00:36:15;;;;;;;2.00;0.80;;;14.40;99.90;;;;;;4830349;29;20197;-82
2022/10/16 00:38:40;;;;;;;1.88;0.80;;;14.40;99.90;;;;;;4826768;29;20183;-82
2022/10/16 00:41:09;;;;;;;2.00;0.90;;;14.30;99.90;;;;;;4838553;29;20306;-82
2022/10/16 00:43:40;;;;;;;2.50;0.90;;;14.30;99.90;;;;;;4824391;29;20630;-82
2022/10/16 00:46:21;;;;;;;2.03;1.00;;;14.30;99.90;;;;;;4824848;29;20252;-82
2022/10/16 00:49:01;;;;;;;3.33;0.88;;;14.30;99.90;;;;;;4824505;29;20189;-82
2022/10/16 00:51:39;;;;;;;1.70;1.00;;;14.30;99.90;;;;;;4824794;29;20189;-83
2022/10/16 00:54:29;;;;;;;4.13;1.10;;;14.30;99.90;;;;;;4824984;29;20669;-83
2022/10/16 00:56:58;;;;;;;3.22;0.98;;;14.30;99.90;;;;;;4823418;29;20225;-83
2022/10/16 00:59:29;;;;;;;1.25;1.08;;;14.30;99.90;;;;;;4824113;29;20264;-82
2022/10/16 01:01:56;;;;;;;1.00;0.90;;;14.20;99.90;;;;;;4824420;29;20278;-82
2022/10/16 01:04:23;;;;;;;3.80;0.93;;;14.20;99.90;;;;;;4823384;29;20214;-83
2022/10/16 01:07:15;;;;;;;1.23;0.95;;;14.20;99.90;;;;;;4824381;29;20253;-83
2022/10/16 01:10:07;;;;;;;1.55;0.95;;;14.20;99.90;;;;;;4823452;29;20202;-83
2022/10/16 01:12:39;;;;;;;2.55;0.80;;;14.20;99.90;;;;;;4820279;29;20198;-83
2022/10/16 01:15:37;;;;;;;1.35;0.93;;;14.20;99.90;;;;;;4824324;29;20193;-83
2022/10/16 01:18:02;;;;;;;4.13;1.00;;;14.20;99.90;;;;;;4824021;29;20198;-83
2022/10/16 01:20:40;;;;;;;1.30;0.88;;;14.20;99.90;;;;;;4824598;29;20527;-82
2022/10/16 01:23:20;;;;;;;2.58;1.20;;;14.20;99.90;;;;;;4824248;29;20193;-83
2022/10/16 01:26:18;;;;;;;1.15;0.65;;;14.20;99.90;;;;;;4824131;29;20704;-83
2022/10/16 01:29:20;;;;;;;2.35;0.85;;;14.20;99.90;;;;;;4838254;29;20550;-83
2022/10/16 01:31:54;;;;;;;2.65;1.00;;;14.20;99.90;;;;;;4809110;29;20269;-83
2022/10/16 01:35:02;;;;;;;1.90;1.00;;;14.10;99.90;;;;;;4824370;29;20177;-83
2022/10/16 01:37:39;;;;;;;1.30;0.90;;;14.20;99.90;;;;;;4804706;29;20189;-83
2022/10/16 01:40:14;;;;;;;4.65;1.13;;;14.20;99.90;;;;;;4824267;29;20240;-83
2022/10/16 01:42:44;;;;;;;4.70;1.10;;;14.20;99.90;;;;;;4837613;29;20228;-83
2022/10/16 01:45:13;;;;;;;1.73;1.10;;;14.20;99.90;;;;;;4845676;29;20205;-82
2022/10/16 01:47:40;;;;;;;2.83;1.10;;;14.20;99.90;;;;;;4845381;29;20633;-83
2022/10/16 01:50:08;;;;;;;2.72;1.08;;;14.20;99.90;;;;;;4844531;29;20189;-82
2022/10/16 01:52:41;;;;;;;1.95;0.80;;;14.10;99.90;;;;;;4845579;29;20177;-81
2022/10/16 01:55:12;;;;;;;4.75;1.55;;;14.10;99.90;;;;;;4844399;29;20193;-82
2022/10/16 01:57:43;;;;;;;3.15;0.90;;;14.10;99.90;;;;;;4842122;29;20262;-82
2022/10/16 02:00:12;;;;;;;2.38;1.00;;;14.10;99.90;;;;;;4844417;29;20184;-82
2022/10/16 02:02:44;;;;;;;2.60;0.95;;;14.10;99.90;;;;;;4843116;29;20568;-83
2022/10/16 02:05:42;;;;;;;1.38;1.05;;;14.10;99.90;;;;;;4844239;29;20248;-83
2022/10/16 02:08:08;;;;;;;4.43;1.05;;;14.00;99.90;;;;;;4828567;29;20189;-82
2022/10/16 02:10:36;;;;;;;2.88;1.30;;;14.00;99.90;;;;;;4828852;29;20192;-83
2022/10/16 02:13:26;;;;;;;4.93;1.17;;;14.00;99.90;;;;;;4849219;29;20200;-82
2022/10/16 02:15:52;;;;;;;1.83;1.20;;;14.00;99.90;;;;;;4843420;29;20648;-81
2022/10/16 02:18:18;;;;;;;3.42;1.40;;;14.00;99.90;;;;;;4845416;29;20178;-82
2022/10/16 02:21:16;;;;;;;7.68;1.30;;;14.00;99.90;;;;;;4844027;29;20185;-83
2022/10/16 02:23:55;;;;;;;9.82;1.42;;;14.00;99.90;;;;;;4848639;29;20224;-83
2022/10/16 02:26:43;;;;;;;3.55;1.48;;;14.00;99.90;;;;;;4859283;29;20276;-83
2022/10/16 02:29:14;;;;;;;6.00;1.33;;;14.00;99.90;;;;;;4844684;29;20618;-83
2022/10/16 02:31:45;;;;;;;3.00;1.45;;;14.00;99.90;;;;;;4844299;29;20187;-82
2022/10/16 02:34:13;;;;;;;1.38;1.10;;;14.10;99.90;;;;;;4828497;29;20185;-83
2022/10/16 02:36:40;;;;;;;1.95;1.38;;;14.10;99.90;;;;;;4844724;29;20272;-84
2022/10/16 02:39:07;;;;;;;1.20;1.10;;;14.10;99.90;;;;;;4844989;29;20261;-82
2022/10/16 02:41:34;;;;;;;2.60;1.00;;;14.10;99.90;;;;;;4844710;29;20224;-82
2022/10/16 02:43:59;;;;;;;3.00;1.40;;;14.10;99.90;;;;;;4840809;29;20204;-83
2022/10/16 02:46:25;;;;;;;2.17;1.30;;;14.20;99.90;;;;;;4844850;29;20237;-83
2022/10/16 02:48:51;;;;;;;4.43;1.40;;;14.20;99.90;;;;;;4826242;29;20193;-82
2022/10/16 02:51:16;;;;;;;2.65;1.30;;;14.20;99.90;;;;;;4809029;29;20193;-83
2022/10/16 02:53:42;;;;;;;2.40;1.40;;;14.20;99.90;;;;;;4809964;29;20189;-82
2022/10/16 02:56:08;;;;;;;3.97;1.60;;;14.30;99.90;;;;;;4826047;29;20182;-83
2022/10/16 02:58:33;;;;;;;3.83;1.42;;;14.30;99.90;;;;;;4810173;29;20272;-83
2022/10/16 03:00:59;;;;;;;2.08;1.00;;;14.30;99.90;;;;;;5211408;24;20242;-85
2022/10/16 03:03:25;;;;;;;2.40;1.40;;;14.30;99.90;;;;;;4825724;29;20234;-86
2022/10/16 03:05:50;;;;;;;2.95;1.40;;;14.30;99.90;;;;;;4825106;29;20258;-85
2022/10/16 03:08:17;;;;;;;1.35;1.10;;;14.30;99.90;;;;;;4825046;29;20189;-86
2022/10/16 03:10:43;;;;;;;4.13;1.40;;;14.20;99.90;;;;;;4826256;29;20177;-86
2022/10/16 03:13:08;;;;;;;3.40;1.75;;;14.20;99.90;;;;;;4825776;29;20636;-86
2022/10/16 03:15:34;;;;;;;3.45;1.45;;;14.20;99.90;;;;;;4839959;29;20182;-86
2022/10/16 03:18:00;;;;;;;1.65;1.30;;;14.10;99.90;;;;;;4825296;29;20197;-86
2022/10/16 03:20:26;;;;;;;2.75;1.73;;;14.10;99.90;;;;;;4826070;29;20178;-86
2022/10/16 03:22:52;;;;;;;4.18;1.40;;;14.10;99.90;;;;;;4809585;29;20633;-85
2022/10/16 03:25:18;;;;;;;2.90;1.33;;;14.00;99.90;;;;;;4809465;29;20210;-85
2022/10/16 03:27:44;;;;;;;2.25;1.15;;;14.00;99.90;;;;;;4824614;29;20189;-85
2022/10/16 03:30:10;;;;;;;2.67;1.13;;;14.00;99.90;;;;;;4826020;29;20204;-85
2022/10/16 03:32:36;;;;;;;2.05;1.42;;;14.00;99.90;;;;;;4808688;29;20190;-85
2022/10/16 03:35:02;;;;;;;5.28;1.50;;;14.00;99.90;;;;;;4825997;29;20181;-85
2022/10/16 03:37:27;;;;;;;2.28;1.40;;;14.00;99.90;;;;;;4825597;29;20213;-85
2022/10/16 03:39:53;;;;;;;6.13;1.20;;;13.90;99.90;;;;;;4825317;29;20618;-84
2022/10/16 03:42:19;;;;;;;1.88;1.40;;;13.90;99.90;;;;;;4825526;29;20186;-84
2022/10/16 03:44:44;;;;;;;2.63;1.60;;;13.90;99.90;;;;;;4809269;29;20641;-84
2022/10/16 03:47:10;;;;;;;2.22;1.42;;;13.80;99.90;;;;;;4814852;29;20288;-85
2022/10/16 03:49:36;;;;;;;4.32;1.40;;;13.80;99.90;;;;;;4824491;29;20189;-85
2022/10/16 03:52:01;;;;;;;1.98;1.23;;;13.80;99.90;;;;;;4839368;29;20562;-84
2022/10/16 03:54:28;;;;;;;3.50;1.38;;;13.80;99.90;;;;;;4825492;29;20242;-85
2022/10/16 03:56:54;;;;;;;4.43;1.42;;;13.70;99.90;;;;;;4825619;29;20628;-84
2022/10/16 03:59:20;;;;;;;1.77;1.38;;;13.70;99.90;;;;;;4828403;29;20289;-84
2022/10/16 04:01:45;;;;;;;2.05;1.42;;;13.70;99.90;;;;;;4808432;29;20238;-85
2022/10/16 04:04:12;;;;;;;4.65;1.50;;;13.70;99.90;;;;;;4825413;29;20609;-86
2022/10/16 04:06:38;;;;;;;7.75;1.83;;;13.70;99.90;;;;;;4808695;29;20204;-84
2022/10/16 04:09:04;;;;;;;2.97;1.48;;;13.60;99.90;;;;;;4808918;29;20565;-85
2022/10/16 04:11:30;;;;;;;4.38;1.10;;;13.60;99.90;;;;;;4825334;29;20532;-85
2022/10/16 04:13:55;;;;;;;2.90;1.45;;;13.70;99.90;;;;;;4808210;29;20212;-85
2022/10/16 04:16:21;;;;;;;4.32;1.40;;;13.70;99.90;;;;;;4823669;29;20197;-85
2022/10/16 04:18:47;;;;;;;3.50;1.63;;;13.60;99.90;;;;;;4824928;29;20190;-85
2022/10/16 04:21:12;;;;;;;6.35;1.42;;;13.60;99.90;;;;;;4825073;29;20261;-85
2022/10/16 04:23:38;;;;;;;1.73;1.23;;;13.50;99.90;;;;;;4807967;29;20194;-85
2022/10/16 04:26:04;;;;;;;2.38;1.33;;;13.50;99.90;;;;;;4808458;29;20226;-84
2022/10/16 04:28:30;;;;;;;2.15;1.20;;;13.40;99.90;;;;;;4825101;29;20261;-84
2022/10/16 04:30:56;;;;;;;2.33;1.52;;;13.40;99.90;;;;;;4824337;29;20233;-84
2022/10/16 04:33:21;;;;;;;1.80;1.20;;;13.40;99.90;;;;;;4824330;29;20697;-85
2022/10/16 04:35:47;;;;;;;3.53;1.42;;;13.30;99.90;;;;;;4825027;29;20515;-85
2022/10/16 04:38:13;;;;;;;3.55;1.50;;;13.30;99.90;;;;;;4813166;29;20205;-85
2022/10/16 04:40:38;;;;;;;3.33;1.27;;;13.20;99.90;;;;;;4808595;29;20575;-85
2022/10/16 04:43:05;;;;;;;1.30;1.20;;;13.30;99.90;;;;;;4823159;29;20197;-85
2022/10/16 04:45:31;;;;;;;4.25;1.48;;;13.20;99.90;;;;;;4808435;29;20221;-84
2022/10/16 04:47:58;;;;;;;3.40;1.40;;;13.30;99.90;;;;;;4819084;29;20618;-85
2022/10/16 04:50:24;;;;;;;3.15;1.75;;;13.20;99.90;;;;;;4824949;29;20533;-85
2022/10/16 04:52:49;;;;;;;3.55;1.50;;;13.20;99.90;;;;;;4824604;29;20269;-85
2022/10/16 04:55:15;;;;;;;3.78;1.45;;;13.20;99.90;;;;;;4823604;29;20182;-85
2022/10/16 04:57:41;;;;;;;6.03;1.50;;;13.20;99.90;;;;;;4823791;29;20189;-85
2022/10/16 05:00:07;;;;;;;3.78;1.85;;;13.10;99.90;;;;;;4824948;29;20237;-85
2022/10/16 05:02:34;;;;;;;2.53;1.60;;;13.10;99.90;;;;;;4837136;29;20249;-85
2022/10/16 05:04:59;;;;;;;2.38;1.60;;;13.10;99.90;;;;;;4824191;29;20314;-86
2022/10/16 05:07:25;;;;;;;2.53;1.50;;;13.10;99.90;;;;;;4823484;29;20240;-85
2022/10/16 05:09:51;;;;;;;2.03;1.40;;;13.20;99.90;;;;;;4823298;29;20189;-85
2022/10/16 05:12:18;;;;;;;5.07;2.30;;;13.20;99.90;;;;;;4822956;29;20198;-85
2022/10/16 05:14:44;;;;;;;2.05;1.73;;;13.20;99.90;;;;;;4825903;29;20190;-84
2022/10/16 05:17:09;;;;;;;1.75;1.45;;;13.20;99.90;;;;;;4841576;29;20193;-84
2022/10/16 05:19:35;;;;;;;5.22;2.10;;;13.20;99.90;;;;;;4827833;29;20513;-85
2022/10/16 05:22:01;;;;;;;2.40;1.38;;;13.20;99.90;;;;;;4826702;29;20186;-84
2022/10/16 05:24:27;;;;;;;4.13;1.73;;;13.10;99.90;;;;;;4825778;29;20299;-85
2022/10/16 05:26:53;;;;;;;2.42;1.73;;;13.10;99.90;;;;;;4836531;29;20213;-86
2022/10/16 05:29:19;;;;;;;2.15;1.80;;;13.00;99.90;;;;;;4819163;29;20192;-85
2022/10/16 05:31:44;;;;;;;3.03;1.88;;;12.90;99.90;;;;;;4815166;29;20190;-85
2022/10/16 05:34:10;;;;;;;3.78;2.00;;;12.90;99.90;;;;;;4822134;29;20193;-84
2022/10/16 05:36:36;;;;;;;8.80;2.10;;;13.00;99.90;;;;;;4834384;29;20193;-85
2022/10/16 05:39:02;;;;;;;3.28;2.05;;;13.00;99.90;;;;;;4826798;29;20186;-85
2022/10/16 05:41:28;;;;;;;4.38;2.08;;;13.00;99.90;;;;;;4825875;29;20242;-85
2022/10/16 05:43:54;;;;;;;2.70;1.80;;;13.00;99.90;;;;;;4827106;29;20198;-85
2022/10/16 05:46:20;;;;;;;2.00;1.80;;;13.00;99.90;;;;;;4834409;29;20228;-84
2022/10/16 05:48:46;;;;;;;8.30;1.80;;;13.00;99.90;;;;;;4836474;29;20610;-84
2022/10/16 05:51:13;;;;;;;3.03;1.58;;;13.00;99.90;;;;;;4834658;29;20194;-84
2022/10/16 05:53:40;;;;;;;2.35;1.45;;;13.00;99.90;;;;;;4826671;29;20212;-85
2022/10/16 05:56:08;;;;;;;3.58;1.75;;;13.00;99.90;;;;;;4826019;29;20178;-84
2022/10/16 05:58:36;;;;;;;3.03;1.70;;;13.00;99.90;;;;;;4840506;29;20246;-84
2022/10/16 06:01:09;;;;;;;3.47;1.60;;;12.90;99.90;;;;;;4826265;29;20225;-84
2022/10/16 06:03:35;;;;;;;2.65;1.55;;;13.00;99.90;;;;;;4840782;29;20253;-84
2022/10/16 06:06:11;;;;;;;3.38;1.80;;;13.00;99.90;;;;;;4823149;29;20633;-84
2022/10/16 06:08:37;;;;;;;3.83;1.60;;;13.00;99.90;;;;;;4839937;29;20173;-85
2022/10/16 06:11:05;;;;;;;2.00;1.75;;;13.00;99.90;;;;;;4844961;29;20247;-84
2022/10/16 06:13:31;;;;;;;2.22;1.70;;;13.00;99.90;;;;;;4834373;29;20638;-85
2022/10/16 06:15:59;;;;;;;2.22;1.70;;;13.00;99.90;;;;;;4836627;29;20242;-84
2022/10/16 06:18:26;;;;;;;1.65;1.27;;;13.00;99.90;;;;;;4836356;29;20174;-85
2022/10/16 06:20:52;;;;;;;2.63;1.58;;;13.00;99.90;;;;;;4831583;29;20322;-84
2022/10/16 06:23:18;;;;;;;4.57;2.05;;;13.00;99.90;;;;;;4826148;29;20280;-84
2022/10/16 06:25:43;;;;;;;4.47;1.52;;;13.00;99.90;;;;;;4826785;29;20240;-84
2022/10/16 06:28:09;;;;;;;2.30;1.80;;;13.00;99.90;;;;;;4826586;29;20206;-85
2022/10/16 06:30:35;;;;;;;2.10;1.40;;;13.00;99.90;;;;;;4825144;29;20193;-84
2022/10/16 06:33:01;;;;;;;2.38;1.60;;;13.00;99.90;;;;;;4830552;29;20198;-85
2022/10/16 06:35:26;;;;;;;5.45;1.70;;;13.10;99.90;;;;;;4826076;29;20523;-85
2022/10/16 06:37:55;;;;;;;1.80;1.70;;;13.10;99.90;;;;;;4810643;29;20181;-85
2022/10/16 06:40:21;;;;;;;2.67;1.52;;;13.20;99.90;;;;;;4810371;29;20194;-84
2022/10/16 06:42:47;;;;;;;2.55;1.63;;;13.20;99.90;;;;;;4813467;29;20196;-84
2022/10/16 06:45:12;;;;;;;2.00;1.80;;;13.30;99.90;;;;;;4826519;29;20650;-84
2022/10/16 06:47:38;;;;;;;3.00;1.65;;;13.30;99.90;;;;;;4840175;29;20182;-85
2022/10/16 06:50:06;;;;;;;6.90;1.98;;;13.30;99.90;;;;;;4825849;29;20182;-84
2022/10/16 06:52:33;;;;;;;5.00;2.15;;;13.40;99.90;;;;;;4842593;29;20247;-84
2022/10/16 06:54:59;;;;;;;6.25;1.90;;;13.40;99.90;;;;;;4838706;29;20191;-85
2022/10/16 06:57:24;;;;;;;2.33;1.60;;;13.40;99.90;;;;;;4843644;29;20170;-85
2022/10/16 06:59:50;;;;;;;5.13;1.58;;;13.50;99.90;;;;;;4840743;29;20528;-85
2022/10/16 07:02:16;;;;;;;3.78;1.63;;;13.60;99.90;;;;;;4826292;29;20252;-85
2022/10/16 07:04:42;;;;;;;3.90;1.70;;;13.70;99.90;;;;;;4842738;29;20209;-85
2022/10/16 07:07:07;;;;;;;2.00;1.70;;;13.80;99.90;;;;;;4830425;29;20204;-85
2022/10/16 07:09:33;;;;;;;3.58;1.63;;;13.80;99.90;;;;;;4824099;29;20218;-85
2022/10/16 07:11:59;;;;;;;2.15;1.70;;;13.90;99.90;;;;;;4825847;29;20614;-85
2022/10/16 07:14:24;;;;;;;1.90;1.73;;;13.90;99.90;;;;;;4825949;29;20190;-86
2022/10/16 07:16:50;;;;;;;4.53;1.73;;;13.90;99.90;;;;;;4825652;29;20170;-85
2022/10/16 07:19:17;;;;;;;1.92;1.63;;;14.00;99.90;;;;;;4840121;29;20616;-85
2022/10/16 07:21:44;;;;;;;2.30;1.65;;;14.10;99.90;;;;;;4826038;29;20211;-86
2022/10/16 07:24:15;;;;;;;1.83;1.67;;;14.20;99.90;;;;;;4824106;29;20194;-85
2022/10/16 07:26:43;;;;;;;5.68;1.75;;;14.30;99.90;;;;;;4825433;29;20214;-85
2022/10/16 07:29:18;;;;;;;2.88;1.48;;;14.30;99.90;;;;;;4824575;29;20186;-85
2022/10/16 07:31:44;;;;;;;1.77;1.50;;;14.40;99.90;;;;;;4825576;29;20212;-84
2022/10/16 07:34:11;;;;;;;6.00;1.67;;;14.50;99.90;;;;;;4839902;29;20194;-85
2022/10/16 07:36:38;;;;;;;1.85;1.42;;;14.60;99.90;;;;;;4816835;29;20626;-83
2022/10/16 07:39:04;;;;;;;5.07;1.55;;;14.70;99.90;;;;;;4809553;29;20174;-84
2022/10/16 07:41:32;;;;;;;3.10;1.40;;;14.80;99.90;;;;;;4825973;29;20193;-86
2022/10/16 07:44:01;;;;;;;1.73;1.30;;;14.90;99.90;;;;;;4825431;29;20186;-85
2022/10/16 07:46:28;;;;;;;3.63;1.40;;;15.00;99.90;;;;;;4825784;29;20328;-83
2022/10/16 07:48:54;;;;;;;6.05;1.63;;;15.10;99.90;;;;;;4825372;29;20556;-83
2022/10/16 07:51:21;;;;;;;1.40;1.00;;;15.20;99.90;;;;;;4824418;29;20323;-83
2022/10/16 07:53:48;;;;;;;4.35;1.38;;;15.30;99.90;;;;;;4823886;29;20667;-84
2022/10/16 07:56:14;;;;;;;2.15;1.38;;;15.40;99.90;;;;;;4824100;29;20190;-85
2022/10/16 07:58:40;;;;;;;1.88;1.20;;;15.40;99.90;;;;;;4839672;29;20258;-82
2022/10/16 08:01:09;;;;;;;1.13;0.80;;;15.50;99.90;;;;;;4824324;29;20233;-83
2022/10/16 08:03:35;;;;;;;5.25;1.20;;;15.60;99.90;;;;;;4823906;29;20190;-83
2022/10/16 08:06:02;;;;;;;1.27;0.90;;;15.70;99.90;;;;;;4815842;29;20617;-83
2022/10/16 08:08:28;;;;;;;6.47;1.00;;;15.70;99.90;;;;;;4819264;29;20190;-85
2022/10/16 08:10:54;;;;;;;0.88;0.68;;;15.80;99.90;;;;;;4824287;29;20254;-82
2022/10/16 08:13:20;;;;;;;2.20;1.00;;;15.90;99.90;;;;;;4825361;29;20630;-83
2022/10/16 08:15:46;;;;;;;6.32;1.00;;;16.00;99.90;;;;;;4809044;29;20185;-85
2022/10/16 08:18:14;;;;;;;1.33;0.70;;;16.00;99.90;;;;;;4825470;29;20193;-85
2022/10/16 08:20:40;;;;;;;1.05;0.55;;;16.10;99.90;;;;;;4825384;29;20181;-87
2022/10/16 08:23:06;;;;;;;0.85;0.63;;;16.10;99.90;;;;;;4809039;29;20179;-84
2022/10/16 08:25:36;;;;;;;3.42;0.80;;;16.10;99.90;;;;;;4823991;29;20221;-88
2022/10/16 08:28:07;;;;;;;4.07;0.70;;;16.10;99.90;;;;;;4838841;29;20234;-83
2022/10/16 08:30:33;;;;;;;1.35;0.60;;;16.00;99.90;;;;;;4808238;29;20244;-85
2022/10/16 08:32:59;;;;;;;3.42;0.85;;;16.10;99.90;;;;;;4822256;29;20392;-84
2022/10/16 08:35:26;;;;;;;1.35;0.80;;;16.20;99.90;;;;;;4812313;29;20284;-88
2022/10/16 08:37:52;;;;;;;3.33;0.80;;;16.20;99.90;;;;;;4825397;29;20215;-88
2022/10/16 08:40:25;;;;;;;0.93;0.60;;;16.20;99.90;;;;;;4808651;29;20186;-84
2022/10/16 08:43:15;;;;;;;3.42;1.02;;;16.20;99.90;;;;;;4824645;29;20190;-83
2022/10/16 08:45:59;;;;;;;0.80;0.60;;;16.20;99.90;;;;;;4825107;29;20210;-85
2022/10/16 08:48:33;;;;;;;1.73;0.70;;;16.30;99.90;;;;;;4825703;29;20213;-85
2022/10/16 08:51:02;;;;;;;1.95;0.60;;;16.20;99.90;;;;;;4828089;29;20178;-87
2022/10/16 08:53:33;;;;;;;0.80;0.60;;;16.20;99.90;;;;;;4828751;29;20182;-85
2022/10/16 08:55:59;;;;;;;0.93;0.57;;;16.20;99.90;;;;;;4827980;29;20193;-89
2022/10/16 08:58:30;;;;;;;2.60;0.70;;;16.10;99.90;;;;;;4813545;29;20189;-86
2022/10/16 09:00:58;;;;;;;2.78;0.80;;;16.10;99.90;;;;;;4828120;29;20256;-85
2022/10/16 09:03:45;;;;;;;1.05;0.50;;;16.10;99.90;;;;;;4827573;29;20190;-86
2022/10/16 09:06:46;;;;;;;1.80;0.60;;;16.20;99.90;;;;;;4821782;29;20230;-85
2022/10/16 09:09:50;;;;;;;4.43;0.60;;;16.40;99.90;;;;;;4810257;29;20257;-86
2022/10/16 09:12:40;;;;;;;3.10;0.60;;;16.60;99.90;;;;;;4738705;30;20253;-85
2022/10/16 09:15:24;;;;;;;0.50;0.50;;;16.70;99.90;;;;;;4810128;29;20669;-88
2022/10/16 09:18:41;;;;;;;2.33;0.50;;;16.80;99.90;;;;;;4828041;29;20174;-86
2022/10/16 09:21:14;;;;;;;0.60;0.50;;;16.80;99.90;;;;;;4797276;29;20202;-86
2022/10/16 09:23:40;;;;;;;2.55;0.70;;;16.80;99.90;;;;;;4828111;29;20166;-85
2022/10/16 09:26:11;;;;;;;0.75;0.50;;;16.70;99.90;;;;;;4827548;29;20283;-88
2022/10/16 09:28:37;;;;;;;1.30;0.50;;;16.70;99.90;;;;;;4817563;29;20216;-91
2022/10/16 09:31:03;;;;;;;0.80;0.40;;;16.60;99.90;;;;;;4802971;29;20933;-85
2022/10/16 09:33:39;;;;;;;1.00;0.50;;;16.50;99.90;;;;;;4793082;29;20187;-87
2022/10/16 09:36:06;;;;;;;4.47;0.57;;;16.40;99.90;;;;;;4799107;29;20196;-85
2022/10/16 09:38:36;;;;;;;1.02;0.60;;;16.40;99.90;;;;;;4827642;29;20215;-86
2022/10/16 09:41:18;;;;;;;5.05;0.60;;;16.50;99.90;;;;;;4823615;29;20513;-85
2022/10/16 09:43:57;;;;;;;1.73;0.55;;;16.60;99.90;;;;;;4824476;29;20262;-84
2022/10/16 09:46:35;;;;;;;0.50;0.50;;;16.80;99.90;;;;;;4827231;29;20293;-87
2022/10/16 09:49:37;;;;;;;4.03;0.70;;;16.90;99.90;;;;;;4808135;29;20699;-85
2022/10/16 09:52:12;;;;;;;0.68;0.57;;;16.90;99.90;;;;;;4754674;30;20211;-87
2022/10/16 09:54:52;;;;;;;1.10;0.50;;;17.00;99.90;;;;;;4805054;29;20190;-86
2022/10/16 09:57:18;;;;;;;3.15;0.60;;;17.00;99.90;;;;;;4827532;29;20510;-87
2022/10/16 09:59:55;;;;;;;2.38;0.38;;;17.20;99.90;;;;;;4827359;29;20194;-86
2022/10/16 10:02:31;;;;;;;0.75;0.50;;;17.20;99.90;;;;;;4828105;29;20237;-86
2022/10/16 10:04:57;;;;;;;1.92;0.52;;;17.30;99.90;;;;;;4810956;29;20213;-87
2022/10/16 10:07:34;;;;;;;0.40;0.38;;;17.30;99.90;;;;;;4829524;29;20212;-87
2022/10/16 10:10:04;;;;;;;1.65;0.63;;;17.50;99.90;;;;;;4825640;29;20182;-85
2022/10/16 10:12:37;;;;;;;1.55;0.60;;;17.50;99.90;;;;;;4811200;29;20182;-85
2022/10/16 10:15:11;;;;;;;1.02;0.47;;;17.50;99.90;;;;;;4811104;29;20190;-88
2022/10/16 10:17:49;;;;;;;1.00;0.50;;;17.50;99.90;;;;;;4810046;29;20201;-85
2022/10/16 10:20:31;;;;;;;0.85;0.47;;;17.50;99.90;;;;;;4838831;29;20209;-83
2022/10/16 10:22:57;;;;;;;1.60;0.50;;;17.30;99.90;;;;;;4829102;29;20185;-85
2022/10/16 10:25:55;;;;;;;1.90;0.38;;;17.20;99.90;;;;;;4840832;29;20217;-86
2022/10/16 10:28:55;;;;;;;1.92;0.40;;;17.30;99.90;;;;;;4842519;29;20197;-89
2022/10/16 10:31:47;;;;;;;1.20;0.50;;;17.50;99.90;;;;;;4761445;29;20335;-85
2022/10/16 10:34:28;;;;;;;0.88;0.50;;;17.60;99.90;;;;;;4812002;29;20199;-85
2022/10/16 10:37:20;;;;;;;0.90;0.43;;;17.70;99.90;;;;;;4832849;29;20189;-85
2022/10/16 10:39:59;;;;;;;6.13;0.60;;;17.70;99.90;;;;;;4826394;29;20236;-82
2022/10/16 10:42:53;;;;;;;0.63;0.40;;;17.70;99.90;;;;;;4840172;29;20190;-82
2022/10/16 10:45:38;;;;;;;2.78;0.47;;;17.70;99.90;;;;;;4825358;29;20213;-86
2022/10/16 10:48:16;;;;;;;0.73;0.40;;;17.70;99.90;;;;;;4834285;29;20210;-85
2022/10/16 10:51:01;;;;;;;0.45;0.30;;;17.70;99.90;;;;;;4817241;29;20215;-87
2022/10/16 10:53:47;;;;;;;1.60;0.50;;;17.80;99.90;;;;;;4833328;29;20169;-86
2022/10/16 10:56:38;;;;;;;0.57;0.45;;;17.80;99.90;;;;;;4793372;29;20213;-85
2022/10/16 10:59:29;;;;;;;3.58;0.50;;;17.90;99.90;;;;;;4812256;29;20201;-87
2022/10/16 11:02:00;;;;;;;1.60;0.40;;;18.00;99.90;;;;;;4832241;29;20284;-86
2022/10/16 11:04:38;;;;;;;0.65;0.40;;;18.00;99.90;;;;;;4817017;29;20169;-85
2022/10/16 11:07:19;;;;;;;3.20;0.40;;;18.10;99.90;;;;;;4836662;29;20624;-88
2022/10/16 11:09:53;;;;;;;0.80;0.50;;;18.30;99.90;;;;;;4815422;29;20178;-85
2022/10/16 11:12:33;;;;;;;0.63;0.50;;;18.40;99.90;;;;;;4815697;29;20641;-84
2022/10/16 11:15:11;;;;;;;1.70;0.43;;;18.30;99.90;;;;;;4817442;29;21563;-86
2022/10/16 11:18:17;;;;;;;1.38;0.40;;;18.20;99.90;;;;;;4835327;29;20610;-83
2022/10/16 11:21:05;;;;;;;2.03;0.50;;;18.10;99.90;;;;;;4783815;29;20498;-83
2022/10/16 11:23:51;;;;;;;2.15;0.40;;;18.00;99.90;;;;;;4826732;29;20637;-84
2022/10/16 11:26:21;;;;;;;4.18;0.32;;;18.00;99.90;;;;;;4807893;29;20233;-83
2022/10/16 11:28:51;;;;;;;2.15;0.65;;;18.00;99.90;;;;;;4825609;29;20192;-83
2022/10/16 11:31:29;;;;;;;1.77;0.43;;;17.90;99.90;;;;;;4809547;29;20186;-85
2022/10/16 11:34:04;;;;;;;5.32;0.77;;;17.80;99.90;;;;;;4809042;29;20188;-83
2022/10/16 11:36:48;;;;;;;3.38;0.55;;;17.80;99.90;;;;;;4820865;29;20242;-83
2022/10/16 11:39:29;;;;;;;4.72;0.50;;;18.00;99.90;;;;;;4825452;29;20261;-84
2022/10/16 11:42:04;;;;;;;6.32;0.70;;;18.40;99.90;;;;;;4829380;29;20526;-85
2022/10/16 11:44:43;;;;;;;3.17;0.50;;;18.60;99.90;;;;;;4816418;29;20197;-87
2022/10/16 11:47:15;;;;;;;1.55;0.75;;;18.60;99.90;;;;;;4810379;29;20637;-83
2022/10/16 11:49:43;;;;;;;2.45;0.43;;;18.60;99.90;;;;;;4795636;29;20205;-83
2022/10/16 11:52:36;;;;;;;3.10;0.47;;;18.80;99.90;;;;;;4804106;29;20659;-85
2022/10/16 11:55:14;;;;;;;2.60;0.50;;;19.00;99.90;;;;;;4807099;29;20190;-83
2022/10/16 11:57:49;;;;;;;2.25;0.47;;;19.00;99.90;;;;;;4806839;29;20193;-84
2022/10/16 12:00:29;;;;;;;2.00;0.60;;;19.10;99.90;;;;;;4791293;29;20633;-85
2022/10/16 12:03:14;;;;;;;1.10;0.50;;;19.10;99.90;;;;;;4809661;29;20312;-83
2022/10/16 12:06:13;;;;;;;2.85;0.55;;;19.20;99.90;;;;;;4796280;29;20620;-83
2022/10/16 12:08:39;;;;;;;3.90;0.40;;;19.30;99.90;;;;;;4801200;29;20190;-86
2022/10/16 12:11:26;;;;;;;1.45;0.40;;;19.40;99.90;;;;;;4818068;29;20194;-83
2022/10/16 12:14:12;;;;;;;1.73;0.60;;;19.30;99.90;;;;;;4821520;29;20196;-85
2022/10/16 12:16:59;;;;;;;4.85;0.50;;;19.30;99.90;;;;;;4808258;29;20282;-83
2022/10/16 12:19:28;;;;;;;2.05;0.70;;;19.40;99.90;;;;;;4823907;29;20185;-83
2022/10/16 12:21:57;;;;;;;2.70;0.77;;;19.40;99.90;;;;;;4808129;29;20291;-83
2022/10/16 12:24:42;;;;;;;3.95;0.60;;;19.40;99.90;;;;;;4824738;29;20189;-82
2022/10/16 12:27:30;;;;;;;2.72;0.60;;;19.50;99.90;;;;;;4824242;29;20677;-83
2022/10/16 12:30:05;;;;;;;2.15;0.50;;;19.70;99.90;;;;;;4807511;29;20255;-85
2022/10/16 12:32:39;;;;;;;1.15;0.40;;;19.90;99.90;;;;;;4814442;29;20198;-84
2022/10/16 12:35:16;;;;;;;3.00;0.50;;;20.10;99.10;;;;;;4832714;29;20229;-85
2022/10/16 12:37:44;;;;;;;2.05;0.52;;;19.90;98.90;;;;;;4823234;29;20190;-84
2022/10/16 12:40:47;;;;;;;1.55;0.50;;;19.90;99.10;;;;;;4790660;29;20540;-85
2022/10/16 12:43:27;;;;;;;4.20;0.45;;;19.90;98.50;;;;;;4777076;30;20199;-85
2022/10/16 12:46:01;;;;;;;1.33;0.52;;;20.00;99.30;;;;;;4804269;29;20286;-83
2022/10/16 12:48:28;;;;;;;1.38;0.45;;;20.10;98.60;;;;;;4805992;29;20193;-85
2022/10/16 12:50:53;;;;;;;2.78;0.40;;;20.10;97.50;;;;;;4790551;29;20542;-86
2022/10/16 12:53:26;;;;;;;5.28;0.75;;;20.20;97.90;;;;;;4812864;29;20190;-82
2022/10/16 12:56:00;;;;;;;2.70;0.45;;;20.20;98.10;;;;;;4816184;29;20261;-85
2022/10/16 12:59:10;;;;;;;4.57;0.52;;;20.20;97.60;;;;;;4806405;29;20175;-84
2022/10/16 13:01:54;;;;;;;0.55;0.40;;;20.40;97.50;;;;;;4804407;29;20234;-84
2022/10/16 13:04:26;;;;;;;1.00;0.47;;;20.50;98.10;;;;;;4820837;29;20269;-83
2022/10/16 13:06:56;;;;;;;1.75;0.50;;;20.60;97.80;;;;;;4815735;29;20197;-84
2022/10/16 13:09:21;;;;;;;1.77;0.63;;;20.70;97.50;;;;;;4817596;29;20621;-83
2022/10/16 13:11:58;;;;;;;1.60;0.30;;;20.70;96.20;;;;;;4824422;29;20250;-83
2022/10/16 13:14:24;;;;;;;1.70;0.50;;;20.60;96.50;;;;;;4816074;29;20190;-84